Time;durP1;ratioP1;P1;durP2;ratioP2;P2;SDS_P1;SDS_P2;PMS_P1;PMS_P2;Temp;Humidity;BMP_temperature;BMP_pressure;BME280_temperature;BME280_humidity;BME280_pressure;Samples;Min_cycle;Max_cycle;Signal;HPM_P1;HPM_P2
2021/06/16 00:02:29;;;;;;;1.42;1.42;;;;;;;;;;5010661;28;20512;-53
2021/06/16 00:04:58;;;;;;;1.10;1.00;;;;;;;;;;5010569;28;20033;-53
2021/06/16 00:07:25;;;;;;;1.20;1.10;;;;;;;;;;5010935;28;21141;-53
2021/06/16 00:09:52;;;;;;;3.83;1.02;;;;;;;;;;5012926;28;20494;-53
2021/06/16 00:12:21;;;;;;;1.00;1.00;;;;;;;;;;5011350;28;20061;-54
2021/06/16 00:14:53;;;;;;;1.33;1.10;;;;;;;;;;5013414;28;20049;-53
2021/06/16 00:17:22;;;;;;;1.33;1.02;;;;;;;;;;5012502;28;20048;-53
2021/06/16 00:19:49;;;;;;;1.80;1.27;;;;;;;;;;5008812;28;20475;-54
2021/06/16 00:22:17;;;;;;;1.10;1.10;;;;;;;;;;5013002;28;20037;-54
2021/06/16 00:24:50;;;;;;;1.67;1.58;;;;;;;;;;5012481;28;20034;-54
2021/06/16 00:27:19;;;;;;;2.53;1.13;;;;;;;;;;5011347;28;20100;-54
2021/06/16 00:29:50;;;;;;;1.10;1.10;;;;;;;;;;5011304;28;20479;-54
2021/06/16 00:32:20;;;;;;;1.35;1.20;;;;;;;;;;5010055;28;20112;-53
2021/06/16 00:34:51;;;;;;;1.05;1.05;;;;;;;;;;5012050;28;20564;-54
2021/06/16 00:37:19;;;;;;;1.20;1.10;;;;;;;;;;5011010;28;20030;-54
2021/06/16 00:39:47;;;;;;;1.30;1.20;;;;;;;;;;5010635;28;20494;-52
2021/06/16 00:42:22;;;;;;;1.10;1.00;;;;;;;;;;5012763;28;20494;-53
2021/06/16 00:44:54;;;;;;;1.90;1.20;;;;;;;;;;5011124;28;20034;-53
2021/06/16 00:47:25;;;;;;;1.55;1.23;;;;;;;;;;5011479;28;20034;-51
2021/06/16 00:49:53;;;;;;;1.20;1.20;;;;;;;;;;5012209;28;20052;-53
2021/06/16 00:52:25;;;;;;;1.90;1.50;;;;;;;;;;5011421;28;20034;-53
2021/06/16 00:54:57;;;;;;;1.70;1.20;;;;;;;;;;5004240;28;20062;-53
2021/06/16 00:57:27;;;;;;;1.85;1.35;;;;;;;;;;5005020;28;20046;-53
2021/06/16 01:00:03;;;;;;;1.10;1.08;;;;;;;;;;5009420;28;20133;-54
2021/06/16 01:02:46;;;;;;;2.05;1.20;;;;;;;;;;5010668;28;20536;-54
2021/06/16 01:05:17;;;;;;;3.55;1.30;;;;;;;;;;5005753;28;20037;-54
2021/06/16 01:07:53;;;;;;;1.40;1.40;;;;;;;;;;5011157;28;20076;-53
2021/06/16 01:10:23;;;;;;;1.92;1.20;;;;;;;;;;5011004;28;20517;-53
2021/06/16 01:13:14;;;;;;;1.33;1.20;;;;;;;;;;5010701;28;20068;-54
2021/06/16 01:15:46;;;;;;;2.38;1.13;;;;;;;;;;5010469;28;20048;-53
2021/06/16 01:18:19;;;;;;;1.20;1.20;;;;;;;;;;5010633;28;20054;-54
2021/06/16 01:20:54;;;;;;;1.58;1.48;;;;;;;;;;5008543;28;20057;-53
2021/06/16 01:23:32;;;;;;;1.17;1.13;;;;;;;;;;5009867;28;20385;-53
2021/06/16 01:26:02;;;;;;;3.15;1.25;;;;;;;;;;5011274;28;20076;-54
2021/06/16 01:28:42;;;;;;;1.08;1.08;;;;;;;;;;5008621;28;20042;-53
2021/06/16 01:31:13;;;;;;;1.42;1.42;;;;;;;;;;5010754;28;20042;-54
2021/06/16 01:33:43;;;;;;;1.30;1.20;;;;;;;;;;5009886;28;20364;-53
2021/06/16 01:36:14;;;;;;;1.10;1.10;;;;;;;;;;5010345;28;20104;-52
2021/06/16 01:38:45;;;;;;;1.88;1.33;;;;;;;;;;5010979;28;20594;-54
2021/06/16 01:41:16;;;;;;;1.30;1.10;;;;;;;;;;5008853;28;20052;-53
2021/06/16 01:43:47;;;;;;;1.60;1.50;;;;;;;;;;5011871;28;20053;-52
2021/06/16 01:46:19;;;;;;;1.10;1.10;;;;;;;;;;5008913;28;20038;-53
2021/06/16 01:48:49;;;;;;;1.45;1.35;;;;;;;;;;5009044;28;20030;-54
2021/06/16 01:51:20;;;;;;;1.55;1.45;;;;;;;;;;5011467;28;20069;-53
2021/06/16 01:53:51;;;;;;;1.30;1.30;;;;;;;;;;5009879;28;20046;-54
2021/06/16 01:56:22;;;;;;;1.65;1.65;;;;;;;;;;5004117;28;20112;-54
2021/06/16 01:58:56;;;;;;;1.77;1.30;;;;;;;;;;5010126;28;20049;-54
2021/06/16 02:01:29;;;;;;;2.25;1.40;;;;;;;;;;5009553;28;20470;-54
2021/06/16 02:03:58;;;;;;;2.80;1.35;;;;;;;;;;5010941;28;20053;-54
2021/06/16 02:06:29;;;;;;;1.52;1.42;;;;;;;;;;5010730;28;20077;-54
2021/06/16 02:09:00;;;;;;;1.65;1.55;;;;;;;;;;5014874;28;20049;-54
2021/06/16 02:11:38;;;;;;;1.20;1.20;;;;;;;;;;5009770;28;20068;-53
2021/06/16 02:14:09;;;;;;;1.50;1.30;;;;;;;;;;5010368;28;20665;-53
2021/06/16 02:16:52;;;;;;;1.10;1.10;;;;;;;;;;5007492;28;20022;-53
2021/06/16 02:19:32;;;;;;;1.55;1.45;;;;;;;;;;5008287;28;20038;-53
2021/06/16 02:22:00;;;;;;;1.70;1.60;;;;;;;;;;5008467;28;20038;-53
2021/06/16 02:24:28;;;;;;;1.75;1.63;;;;;;;;;;5009602;28;20045;-52
2021/06/16 02:27:02;;;;;;;;;;;;;;;;;;5008174;28;20037;-53
2021/06/16 02:29:33;;;;;;;1.60;1.50;;;;;;;;;;5009410;28;19928;-54
2021/06/16 02:32:09;;;;;;;2.08;1.45;;;;;;;;;;5009497;28;20049;-53
2021/06/16 02:34:38;;;;;;;1.50;1.50;;;;;;;;;;5007681;28;20049;-54
2021/06/16 02:37:13;;;;;;;1.33;1.30;;;;;;;;;;5008290;28;20470;-54
2021/06/16 02:39:50;;;;;;;2.38;1.42;;;;;;;;;;5009924;28;20417;-54
2021/06/16 02:42:24;;;;;;;1.50;1.40;;;;;;;;;;5005494;28;20125;-55
2021/06/16 02:44:56;;;;;;;1.50;1.40;;;;;;;;;;4993815;28;20046;-54
2021/06/16 02:47:30;;;;;;;1.90;1.80;;;;;;;;;;5010379;28;20049;-53
2021/06/16 02:50:01;;;;;;;1.60;1.60;;;;;;;;;;5005930;28;20056;-54
2021/06/16 02:52:34;;;;;;;1.33;1.33;;;;;;;;;;5009822;28;20034;-53
2021/06/16 02:55:05;;;;;;;11.20;1.92;;;;;;;;;;5009961;28;20296;-54
2021/06/16 02:57:37;;;;;;;5.28;1.52;;;;;;;;;;5006512;28;20045;-54
2021/06/16 03:00:07;;;;;;;1.38;1.27;;;;;;;;;;5009774;28;20052;-54
2021/06/16 03:02:38;;;;;;;1.30;1.30;;;;;;;;;;5008068;28;20441;-53
2021/06/16 03:05:10;;;;;;;2.65;1.30;;;;;;;;;;5008206;28;20043;-54
2021/06/16 03:07:38;;;;;;;1.48;1.40;;;;;;;;;;5007690;28;20046;-53
2021/06/16 03:10:07;;;;;;;3.85;1.52;;;;;;;;;;5008493;28;20050;-53
2021/06/16 03:12:40;;;;;;;1.80;1.30;;;;;;;;;;5009538;28;20136;-54
2021/06/16 03:15:13;;;;;;;2.20;1.80;;;;;;;;;;5008646;28;20046;-54
2021/06/16 03:17:46;;;;;;;2.55;1.30;;;;;;;;;;5009401;28;20145;-53
2021/06/16 03:20:23;;;;;;;1.48;1.48;;;;;;;;;;5016309;28;20060;-54
2021/06/16 03:22:57;;;;;;;1.65;1.65;;;;;;;;;;4993182;28;20054;-52
2021/06/16 03:25:32;;;;;;;2.30;1.88;;;;;;;;;;5008980;28;20121;-53
2021/06/16 03:28:04;;;;;;;1.55;1.55;;;;;;;;;;5009116;28;20042;-54
2021/06/16 03:30:38;;;;;;;2.63;2.42;;;;;;;;;;5009706;28;20039;-54
2021/06/16 03:33:11;;;;;;;1.90;1.63;;;;;;;;;;4999785;28;20104;-53
2021/06/16 03:35:47;;;;;;;1.55;1.55;;;;;;;;;;4990740;28;20108;-54
2021/06/16 03:38:19;;;;;;;4.32;2.28;;;;;;;;;;5012108;28;20080;-54
2021/06/16 03:40:50;;;;;;;2.03;1.80;;;;;;;;;;5012469;28;20124;-54
2021/06/16 03:43:22;;;;;;;3.22;1.50;;;;;;;;;;5011468;28;20536;-53
2021/06/16 03:45:51;;;;;;;1.75;1.55;;;;;;;;;;5012865;28;20038;-54
2021/06/16 03:48:23;;;;;;;2.05;1.77;;;;;;;;;;5012325;28;20046;-53
2021/06/16 03:50:55;;;;;;;1.35;1.25;;;;;;;;;;5008275;28;20529;-54
2021/06/16 03:53:23;;;;;;;2.60;1.50;;;;;;;;;;5011512;28;20038;-54
2021/06/16 03:55:55;;;;;;;2.15;1.83;;;;;;;;;;5013661;28;20092;-54
2021/06/16 03:58:26;;;;;;;;;;;;;;;;;;5012959;28;20119;-54
2021/06/16 04:00:57;;;;;;;2.20;1.65;;;;;;;;;;5012125;28;20534;-53
2021/06/16 04:03:29;;;;;;;1.55;1.48;;;;;;;;;;5012316;28;20666;-53
2021/06/16 04:06:06;;;;;;;1.98;1.77;;;;;;;;;;4998720;28;20034;-55
2021/06/16 04:08:36;;;;;;;;;;;;;;;;;;5012415;28;20069;-54
2021/06/16 04:11:05;;;;;;;3.15;1.98;;;;;;;;;;5012734;28;19928;-54
2021/06/16 04:13:36;;;;;;;2.28;2.10;;;;;;;;;;5011349;28;20092;-54
2021/06/16 04:16:09;;;;;;;2.47;2.00;;;;;;;;;;5013257;28;20478;-54
2021/06/16 04:18:45;;;;;;;2.67;1.92;;;;;;;;;;5008151;28;20049;-54
2021/06/16 04:21:16;;;;;;;2.47;2.25;;;;;;;;;;5028996;28;20033;-54
2021/06/16 04:23:48;;;;;;;2.88;2.67;;;;;;;;;;5011889;28;20037;-55
2021/06/16 04:26:21;;;;;;;2.95;2.85;;;;;;;;;;5010798;28;20057;-54
2021/06/16 04:29:00;;;;;;;2.63;2.42;;;;;;;;;;5011726;28;20034;-54
2021/06/16 04:31:34;;;;;;;2.95;2.78;;;;;;;;;;5011334;28;20470;-55
2021/06/16 04:34:05;;;;;;;3.28;3.17;;;;;;;;;;5009072;28;20049;-55
2021/06/16 04:36:37;;;;;;;2.97;2.88;;;;;;;;;;5012158;28;20273;-54
2021/06/16 04:39:08;;;;;;;3.50;3.30;;;;;;;;;;5010748;28;20121;-54
2021/06/16 04:41:39;;;;;;;2.50;2.30;;;;;;;;;;5010983;28;20050;-55
2021/06/16 04:44:12;;;;;;;3.25;2.80;;;;;;;;;;5011845;28;20061;-55
2021/06/16 04:46:48;;;;;;;3.33;3.22;;;;;;;;;;5010113;28;20537;-54
2021/06/16 04:49:23;;;;;;;2.40;2.30;;;;;;;;;;5011455;28;20418;-54
2021/06/16 04:51:54;;;;;;;3.78;3.67;;;;;;;;;;5010188;28;20038;-54
2021/06/16 04:54:22;;;;;;;3.30;2.83;;;;;;;;;;5009701;28;20049;-54
2021/06/16 04:56:52;;;;;;;2.95;2.85;;;;;;;;;;5011424;28;20038;-54
2021/06/16 04:59:22;;;;;;;2.88;2.60;;;;;;;;;;5010810;28;20052;-54
2021/06/16 05:01:53;;;;;;;2.38;2.33;;;;;;;;;;5009266;28;20120;-54
2021/06/16 05:04:24;;;;;;;2.35;2.20;;;;;;;;;;5009303;28;20038;-55
2021/06/16 05:06:58;;;;;;;;;;;;;;;;;;5012683;28;20619;-54
2021/06/16 05:09:28;;;;;;;2.70;2.45;;;;;;;;;;5011113;28;19922;-55
2021/06/16 05:11:56;;;;;;;3.33;3.13;;;;;;;;;;5010169;28;20041;-54
2021/06/16 05:14:36;;;;;;;7.50;3.70;;;;;;;;;;5011716;28;20041;-54
2021/06/16 05:17:10;;;;;;;2.70;2.50;;;;;;;;;;5011385;28;20662;-55
2021/06/16 05:19:56;;;;;;;3.13;2.88;;;;;;;;;;4988853;28;20068;-55
2021/06/16 05:22:34;;;;;;;3.58;3.30;;;;;;;;;;5009521;28;20096;-54
2021/06/16 05:25:04;;;;;;;3.20;3.00;;;;;;;;;;5006840;28;20038;-54
2021/06/16 05:27:36;;;;;;;2.75;2.28;;;;;;;;;;5005396;28;20072;-54
2021/06/16 05:30:10;;;;;;;3.38;3.28;;;;;;;;;;5002912;28;20129;-54
2021/06/16 05:32:43;;;;;;;3.42;2.90;;;;;;;;;;5011331;28;20084;-54
2021/06/16 05:35:10;;;;;;;2.80;2.65;;;;;;;;;;5008429;28;20040;-55
2021/06/16 05:37:37;;;;;;;2.92;2.72;;;;;;;;;;5010325;28;20727;-54
2021/06/16 05:40:07;;;;;;;5.60;3.25;;;;;;;;;;5009017;28;20557;-54
2021/06/16 05:42:36;;;;;;;3.33;3.15;;;;;;;;;;5010252;28;20100;-54
2021/06/16 05:45:05;;;;;;;3.50;3.35;;;;;;;;;;5011738;28;20050;-55
2021/06/16 05:47:35;;;;;;;3.00;2.80;;;;;;;;;;5008739;28;20077;-54
2021/06/16 05:50:04;;;;;;;3.90;3.70;;;;;;;;;;5010848;28;20065;-54
2021/06/16 05:52:33;;;;;;;4.95;2.50;;;;;;;;;;5008810;28;20038;-55
2021/06/16 05:55:04;;;;;;;3.58;3.28;;;;;;;;;;5009613;28;20049;-54
2021/06/16 05:57:37;;;;;;;2.92;2.72;;;;;;;;;;5010674;28;20042;-53
2021/06/16 06:00:09;;;;;;;2.47;2.38;;;;;;;;;;5009637;28;20735;-54
2021/06/16 06:02:53;;;;;;;2.72;2.63;;;;;;;;;;5009262;28;20061;-53
2021/06/16 06:05:27;;;;;;;2.72;2.40;;;;;;;;;;5010574;28;20030;-53
2021/06/16 06:07:57;;;;;;;2.60;2.50;;;;;;;;;;5008990;28;20073;-54
2021/06/16 06:10:29;;;;;;;3.35;2.88;;;;;;;;;;5000285;28;20128;-54
2021/06/16 06:13:01;;;;;;;2.13;2.03;;;;;;;;;;5009459;28;20129;-54
2021/06/16 06:15:30;;;;;;;2.65;2.35;;;;;;;;;;4998451;28;20034;-54
2021/06/16 06:18:01;;;;;;;3.03;2.50;;;;;;;;;;5011035;28;20042;-54
2021/06/16 06:20:33;;;;;;;3.17;2.58;;;;;;;;;;5008479;28;20064;-55
2021/06/16 06:23:04;;;;;;;2.92;2.70;;;;;;;;;;5007890;28;20134;-54
2021/06/16 06:25:36;;;;;;;2.38;2.17;;;;;;;;;;5010799;28;20566;-54
2021/06/16 06:28:13;;;;;;;2.47;2.03;;;;;;;;;;5009093;28;20558;-53
2021/06/16 06:30:45;;;;;;;4.78;2.58;;;;;;;;;;4990460;28;20058;-55
2021/06/16 06:33:18;;;;;;;2.08;1.98;;;;;;;;;;5009285;28;20052;-54
2021/06/16 06:35:51;;;;;;;2.55;2.45;;;;;;;;;;5007088;28;20410;-54
2021/06/16 06:38:21;;;;;;;2.33;2.15;;;;;;;;;;5010438;28;20065;-54
2021/06/16 06:40:50;;;;;;;4.88;1.67;;;;;;;;;;5009007;28;20041;-54
2021/06/16 06:43:24;;;;;;;3.25;2.03;;;;;;;;;;4997086;28;20045;-54
2021/06/16 06:45:57;;;;;;;2.28;1.92;;;;;;;;;;5010495;28;20068;-55
2021/06/16 06:48:27;;;;;;;2.05;1.95;;;;;;;;;;5007563;28;20049;-53
2021/06/16 06:50:56;;;;;;;1.83;1.73;;;;;;;;;;5007480;28;20042;-54
2021/06/16 06:53:32;;;;;;;4.90;1.52;;;;;;;;;;4991071;28;20068;-52
2021/06/16 06:56:05;;;;;;;2.42;1.60;;;;;;;;;;5000021;28;20469;-54
2021/06/16 06:58:42;;;;;;;2.90;2.20;;;;;;;;;;4991256;28;20145;-53
2021/06/16 07:01:17;;;;;;;1.88;1.65;;;;;;;;;;5022864;28;20054;-55
2021/06/16 07:03:50;;;;;;;2.15;2.08;;;;;;;;;;4995868;28;20042;-53
2021/06/16 07:06:19;;;;;;;2.15;1.95;;;;;;;;;;5025281;28;20129;-54
2021/06/16 07:08:47;;;;;;;2.90;1.70;;;;;;;;;;5008632;28;20497;-53
2021/06/16 07:11:18;;;;;;;1.90;1.80;;;;;;;;;;5015339;28;20037;-54
2021/06/16 07:13:53;;;;;;;1.42;1.33;;;;;;;;;;5005013;28;20746;-54
2021/06/16 07:16:21;;;;;;;3.67;1.45;;;;;;;;;;5005865;28;20042;-54
2021/06/16 07:18:52;;;;;;;1.75;1.50;;;;;;;;;;5011814;28;20042;-54
2021/06/16 07:21:24;;;;;;;2.30;2.05;;;;;;;;;;5011505;28;20608;-54
2021/06/16 07:23:58;;;;;;;1.60;1.50;;;;;;;;;;5006790;28;20128;-55
2021/06/16 07:26:33;;;;;;;1.20;1.20;;;;;;;;;;5012775;28;20034;-54
2021/06/16 07:29:05;;;;;;;2.80;1.30;;;;;;;;;;5011505;28;20076;-55
2021/06/16 07:31:37;;;;;;;6.32;1.95;;;;;;;;;;5012781;28;20393;-54
2021/06/16 07:34:06;;;;;;;16.90;1.85;;;;;;;;;;5013810;28;20049;-54
2021/06/16 07:36:35;;;;;;;1.80;1.70;;;;;;;;;;5012915;28;20030;-54
2021/06/16 07:39:10;;;;;;;3.03;1.35;;;;;;;;;;5006123;28;20129;-55
2021/06/16 07:41:40;;;;;;;3.17;1.50;;;;;;;;;;5013206;28;20056;-54
2021/06/16 07:44:12;;;;;;;5.45;2.75;;;;;;;;;;5011432;28;20038;-54
2021/06/16 07:46:44;;;;;;;2.15;1.50;;;;;;;;;;5012425;28;20120;-54
2021/06/16 07:49:14;;;;;;;1.45;1.25;;;;;;;;;;5010659;28;20227;-55
2021/06/16 07:51:49;;;;;;;2.15;1.75;;;;;;;;;;5009621;28;20033;-54
2021/06/16 07:54:21;;;;;;;1.55;1.42;;;;;;;;;;5013832;28;20049;-54
2021/06/16 07:56:49;;;;;;;1.63;1.38;;;;;;;;;;5010956;28;20072;-55
2021/06/16 07:59:22;;;;;;;2.25;1.30;;;;;;;;;;5008051;28;20046;-55
2021/06/16 08:01:56;;;;;;;4.20;1.17;;;;;;;;;;5013039;28;20375;-55
2021/06/16 08:04:25;;;;;;;2.15;1.75;;;;;;;;;;5012962;28;20108;-55
2021/06/16 08:06:53;;;;;;;2.30;1.30;;;;;;;;;;5012172;28;20072;-55
2021/06/16 08:09:26;;;;;;;1.63;1.10;;;;;;;;;;5012507;28;20057;-55
2021/06/16 08:11:58;;;;;;;2.30;1.02;;;;;;;;;;5016245;28;20599;-55
2021/06/16 08:14:28;;;;;;;1.33;1.10;;;;;;;;;;5012057;28;20498;-55
2021/06/16 08:17:01;;;;;;;5.20;1.00;;;;;;;;;;5010676;28;20057;-54
2021/06/16 08:19:30;;;;;;;1.63;1.10;;;;;;;;;;4996521;28;20651;-56
2021/06/16 08:22:01;;;;;;;1.20;1.10;;;;;;;;;;5012704;28;20042;-55
2021/06/16 08:24:31;;;;;;;1.10;1.10;;;;;;;;;;5010690;28;20352;-55
2021/06/16 08:27:04;;;;;;;1.83;1.37;;;;;;;;;;5011675;28;20590;-55
2021/06/16 08:29:34;;;;;;;1.15;0.93;;;;;;;;;;5009174;28;20053;-55
2021/06/16 08:32:05;;;;;;;3.60;1.15;;;;;;;;;;5008727;28;20041;-55
2021/06/16 08:34:38;;;;;;;4.57;1.48;;;;;;;;;;5012260;28;20145;-55
2021/06/16 08:37:11;;;;;;;1.48;1.00;;;;;;;;;;5010796;28;20050;-55
2021/06/16 08:39:42;;;;;;;1.58;1.10;;;;;;;;;;4999655;28;20050;-55
2021/06/16 08:42:10;;;;;;;3.47;1.30;;;;;;;;;;5012813;28;20081;-54
2021/06/16 08:44:42;;;;;;;1.10;0.85;;;;;;;;;;5011433;28;20034;-55
2021/06/16 08:47:15;;;;;;;1.88;0.88;;;;;;;;;;4977179;28;20046;-56
2021/06/16 08:49:46;;;;;;;3.00;0.90;;;;;;;;;;5013863;28;20052;-55
2021/06/16 08:52:16;;;;;;;0.93;0.80;;;;;;;;;;5025252;28;20041;-55
2021/06/16 08:54:48;;;;;;;1.10;0.77;;;;;;;;;;5010622;28;20046;-55
2021/06/16 08:57:17;;;;;;;0.85;0.85;;;;;;;;;;5008701;28;20040;-55
2021/06/16 08:59:45;;;;;;;2.45;0.80;;;;;;;;;;5001250;28;20064;-55
2021/06/16 09:02:16;;;;;;;0.80;0.80;;;;;;;;;;5010585;28;20058;-55
2021/06/16 09:04:52;;;;;;;1.05;0.90;;;;;;;;;;5009335;28;20092;-55
2021/06/16 09:07:26;;;;;;;0.90;0.90;;;;;;;;;;5010766;28;20565;-56
2021/06/16 09:10:15;;;;;;;4.13;1.00;;;;;;;;;;5008041;28;20448;-55
2021/06/16 09:12:57;;;;;;;0.80;0.80;;;;;;;;;;4999772;28;20529;-55
2021/06/16 09:15:30;;;;;;;0.80;0.80;;;;;;;;;;5011625;28;20093;-55
2021/06/16 09:18:06;;;;;;;1.10;1.10;;;;;;;;;;5007233;28;20058;-55
2021/06/16 09:20:39;;;;;;;2.15;0.80;;;;;;;;;;5009086;28;20080;-54
2021/06/16 09:23:26;;;;;;;1.58;1.05;;;;;;;;;;4992884;28;20080;-55
2021/06/16 09:26:04;;;;;;;0.85;0.80;;;;;;;;;;5008535;28;20482;-55
2021/06/16 09:28:42;;;;;;;0.90;0.70;;;;;;;;;;4998581;28;20394;-55
2021/06/16 09:31:20;;;;;;;2.08;0.80;;;;;;;;;;5000452;28;20042;-55
2021/06/16 09:33:55;;;;;;;1.33;0.80;;;;;;;;;;5005114;28;20049;-55
2021/06/16 09:36:28;;;;;;;;;;;;;;;;;;5008949;28;20115;-54
2021/06/16 09:39:07;;;;;;;1.08;1.08;;;;;;;;;;5012120;28;19926;-55
2021/06/16 09:41:37;;;;;;;2.40;0.70;;;;;;;;;;5008813;28;20121;-56
2021/06/16 09:44:06;;;;;;;2.67;1.35;;;;;;;;;;5010110;28;20040;-55
2021/06/16 09:46:33;;;;;;;2.40;1.25;;;;;;;;;;5011281;28;20149;-55
2021/06/16 09:49:00;;;;;;;0.73;0.73;;;;;;;;;;5008773;28;20100;-55
2021/06/16 09:51:28;;;;;;;1.58;0.95;;;;;;;;;;5008346;28;20045;-55
2021/06/16 09:54:21;;;;;;;2.15;1.30;;;;;;;;;;5008079;28;20046;-56
2021/06/16 09:57:00;;;;;;;0.80;0.70;;;;;;;;;;4968947;28;20116;-56
2021/06/16 09:59:35;;;;;;;1.90;0.70;;;;;;;;;;5007909;28;20041;-55
2021/06/16 10:02:16;;;;;;;2.53;0.90;;;;;;;;;;5008665;28;20030;-55
2021/06/16 10:04:57;;;;;;;3.47;0.70;;;;;;;;;;5006516;28;20058;-55
2021/06/16 10:07:28;;;;;;;2.22;0.88;;;;;;;;;;5019636;28;20129;-55
2021/06/16 10:10:11;;;;;;;0.82;0.77;;;;;;;;;;5005660;28;20061;-55
2021/06/16 10:12:44;;;;;;;2.03;0.80;;;;;;;;;;5013540;28;20065;-55
2021/06/16 10:15:16;;;;;;;0.70;0.70;;;;;;;;;;5007867;28;20053;-55
2021/06/16 10:17:46;;;;;;;1.80;0.77;;;;;;;;;;5008700;28;20076;-56
2021/06/16 10:20:21;;;;;;;1.27;0.80;;;;;;;;;;5008581;28;20042;-55
2021/06/16 10:22:53;;;;;;;0.90;0.90;;;;;;;;;;5008805;28;20049;-56
2021/06/16 10:25:30;;;;;;;2.03;0.90;;;;;;;;;;5005717;28;20042;-56
2021/06/16 10:28:01;;;;;;;0.68;0.60;;;;;;;;;;5011858;28;20041;-55
2021/06/16 10:30:43;;;;;;;1.55;0.68;;;;;;;;;;5004550;28;20042;-54
2021/06/16 10:33:50;;;;;;;5.88;0.80;;;;;;;;;;5009411;28;20042;-56
2021/06/16 10:36:24;;;;;;;1.27;0.65;;;;;;;;;;4939895;29;20054;-55
2021/06/16 10:39:00;;;;;;;1.35;0.60;;;;;;;;;;4932492;29;20185;-55
2021/06/16 10:41:56;;;;;;;1.38;0.70;;;;;;;;;;4933003;29;20055;-55
2021/06/16 10:44:30;;;;;;;1.40;0.60;;;;;;;;;;4934072;28;20070;-55
2021/06/16 10:47:06;;;;;;;0.98;0.65;;;;;;;;;;4932480;29;20043;-55
2021/06/16 10:49:35;;;;;;;0.70;0.70;;;;;;;;;;4931341;29;20048;-55
2021/06/16 10:52:12;;;;;;;1.58;0.80;;;;;;;;;;4939614;29;20047;-55
2021/06/16 10:54:52;;;;;;;1.00;1.00;;;;;;;;;;4934462;29;20044;-55
2021/06/16 10:57:21;;;;;;;2.07;0.60;;;;;;;;;;4943671;29;20105;-55
2021/06/16 10:59:53;;;;;;;2.58;0.77;;;;;;;;;;4934472;29;20055;-55
2021/06/16 11:02:29;;;;;;;1.58;0.65;;;;;;;;;;4929826;29;20722;-55
2021/06/16 11:05:16;;;;;;;0.70;0.70;;;;;;;;;;4934972;29;20139;-55
2021/06/16 11:07:46;;;;;;;0.60;0.60;;;;;;;;;;4934867;29;20576;-56
2021/06/16 11:10:23;;;;;;;2.55;0.70;;;;;;;;;;4967286;28;20133;-55
2021/06/16 11:12:53;;;;;;;0.75;0.60;;;;;;;;;;5010197;28;20046;-55
2021/06/16 11:15:24;;;;;;;3.03;0.60;;;;;;;;;;5005520;28;20552;-56
2021/06/16 11:17:58;;;;;;;1.20;0.60;;;;;;;;;;5010461;28;20050;-55
2021/06/16 11:20:38;;;;;;;1.17;0.80;;;;;;;;;;5007418;28;20138;-56
2021/06/16 11:23:20;;;;;;;0.50;0.50;;;;;;;;;;5006619;28;20046;-54
2021/06/16 11:25:49;;;;;;;0.57;0.50;;;;;;;;;;5010784;28;20120;-55
2021/06/16 11:28:37;;;;;;;0.60;0.60;;;;;;;;;;5008366;28;20049;-55
2021/06/16 11:31:10;;;;;;;0.57;0.57;;;;;;;;;;5008229;28;20772;-55
2021/06/16 11:33:45;;;;;;;0.50;0.50;;;;;;;;;;5008776;28;20046;-55
2021/06/16 11:36:19;;;;;;;1.70;0.50;;;;;;;;;;5009132;28;20033;-55
2021/06/16 11:39:01;;;;;;;0.75;0.60;;;;;;;;;;5013097;28;20111;-55
2021/06/16 11:41:29;;;;;;;0.50;0.50;;;;;;;;;;5013831;28;20077;-55
2021/06/16 11:44:08;;;;;;;0.50;0.50;;;;;;;;;;5008392;28;20561;-55
2021/06/16 11:46:38;;;;;;;1.27;0.50;;;;;;;;;;5007437;28;20074;-55
2021/06/16 11:49:10;;;;;;;2.65;0.40;;;;;;;;;;5009784;28;20056;-55
2021/06/16 11:51:43;;;;;;;0.40;0.40;;;;;;;;;;5006246;28;20702;-54
2021/06/16 11:54:30;;;;;;;0.40;0.40;;;;;;;;;;5007913;28;20042;-56
2021/06/16 11:57:10;;;;;;;0.40;0.40;;;;;;;;;;5009039;28;20084;-56
2021/06/16 11:59:46;;;;;;;0.35;0.35;;;;;;;;;;5011734;28;20521;-55
2021/06/16 12:02:24;;;;;;;0.40;0.40;;;;;;;;;;5012183;28;20603;-55
2021/06/16 12:05:09;;;;;;;0.75;0.50;;;;;;;;;;5013138;28;20046;-55
2021/06/16 12:07:45;;;;;;;0.70;0.40;;;;;;;;;;5008505;28;20072;-55
2021/06/16 12:10:25;;;;;;;1.48;0.50;;;;;;;;;;5013582;28;20046;-55
2021/06/16 12:13:00;;;;;;;0.45;0.45;;;;;;;;;;5011585;28;20053;-56
2021/06/16 12:15:36;;;;;;;0.40;0.40;;;;;;;;;;5009709;28;20034;-55
2021/06/16 12:18:14;;;;;;;0.60;0.50;;;;;;;;;;5012370;28;20150;-56
2021/06/16 12:20:50;;;;;;;0.40;0.40;;;;;;;;;;5010211;28;20120;-55
2021/06/16 12:23:27;;;;;;;0.63;0.50;;;;;;;;;;5011080;28;20470;-55
2021/06/16 12:26:03;;;;;;;0.60;0.50;;;;;;;;;;5009322;28;20516;-55
2021/06/16 12:28:38;;;;;;;0.80;0.50;;;;;;;;;;5011269;28;20054;-55
2021/06/16 12:31:17;;;;;;;2.60;0.40;;;;;;;;;;5011209;28;20458;-55
2021/06/16 12:33:51;;;;;;;0.50;0.50;;;;;;;;;;5011554;28;20386;-56
2021/06/16 12:36:23;;;;;;;0.50;0.50;;;;;;;;;;5012001;28;20053;-56
2021/06/16 12:39:16;;;;;;;1.88;0.60;;;;;;;;;;4999908;28;20050;-55
2021/06/16 12:41:53;;;;;;;0.50;0.50;;;;;;;;;;5010245;28;20538;-55
2021/06/16 12:44:38;;;;;;;0.55;0.40;;;;;;;;;;5011275;28;20045;-56
2021/06/16 12:47:27;;;;;;;1.15;0.82;;;;;;;;;;4995532;28;20509;-56
2021/06/16 12:49:57;;;;;;;2.28;0.40;;;;;;;;;;5023251;28;20061;-55
2021/06/16 12:52:32;;;;;;;0.52;0.50;;;;;;;;;;5014271;28;20148;-55
2021/06/16 12:55:16;;;;;;;0.50;0.50;;;;;;;;;;5002815;28;20068;-55
2021/06/16 12:57:52;;;;;;;0.52;0.52;;;;;;;;;;5012294;28;20092;-54
2021/06/16 13:00:29;;;;;;;1.95;0.52;;;;;;;;;;5007882;28;20041;-55
2021/06/16 13:03:14;;;;;;;0.85;0.50;;;;;;;;;;5009402;28;20125;-56
2021/06/16 13:05:52;;;;;;;2.25;0.57;;;;;;;;;;5035710;28;20564;-55
2021/06/16 13:08:35;;;;;;;0.60;0.60;;;;;;;;;;5009366;28;20385;-55
2021/06/16 13:11:23;;;;;;;0.60;0.60;;;;;;;;;;5001363;28;20520;-55
2021/06/16 13:14:10;;;;;;;1.67;0.60;;;;;;;;;;5010735;28;20532;-55
2021/06/16 13:16:40;;;;;;;1.13;0.52;;;;;;;;;;5009365;28;21525;-55
2021/06/16 13:19:12;;;;;;;0.80;0.60;;;;;;;;;;4995112;28;20100;-55
2021/06/16 13:21:56;;;;;;;3.30;0.57;;;;;;;;;;5011425;28;20100;-55
2021/06/16 13:24:28;;;;;;;1.30;0.60;;;;;;;;;;5006451;28;20053;-56
2021/06/16 13:27:03;;;;;;;3.30;0.50;;;;;;;;;;5011433;28;20088;-56
2021/06/16 13:29:36;;;;;;;1.00;0.80;;;;;;;;;;5011490;28;20045;-55
2021/06/16 13:32:14;;;;;;;0.60;0.60;;;;;;;;;;5008395;28;20081;-55
2021/06/16 13:34:48;;;;;;;0.50;0.50;;;;;;;;;;5010814;28;20679;-55
2021/06/16 13:37:18;;;;;;;2.33;0.50;;;;;;;;;;5010222;28;20042;-55
2021/06/16 13:39:47;;;;;;;2.25;0.52;;;;;;;;;;5007882;28;20038;-56
2021/06/16 13:42:19;;;;;;;0.50;0.50;;;;;;;;;;5020795;28;20514;-55
2021/06/16 13:44:48;;;;;;;1.55;0.50;;;;;;;;;;5005595;28;20524;-55
2021/06/16 13:47:18;;;;;;;1.90;0.50;;;;;;;;;;5009688;28;20046;-55
2021/06/16 13:49:49;;;;;;;0.50;0.50;;;;;;;;;;5009732;28;20030;-56
2021/06/16 13:52:23;;;;;;;0.70;0.50;;;;;;;;;;5008677;28;20037;-55
2021/06/16 13:54:52;;;;;;;0.50;0.50;;;;;;;;;;5010186;28;20046;-55
2021/06/16 13:57:19;;;;;;;0.50;0.50;;;;;;;;;;5007394;28;20482;-55
2021/06/16 13:59:47;;;;;;;1.95;0.50;;;;;;;;;;5008083;28;20035;-56
2021/06/16 14:02:17;;;;;;;0.77;0.55;;;;;;;;;;5011286;28;20054;-55
2021/06/16 14:04:50;;;;;;;1.98;0.50;;;;;;;;;;5008439;28;20076;-55
2021/06/16 14:07:17;;;;;;;2.05;0.65;;;;;;;;;;5010544;28;20506;-56
2021/06/16 14:09:44;;;;;;;1.45;0.43;;;;;;;;;;5008480;28;20042;-55
2021/06/16 14:12:18;;;;;;;0.50;0.50;;;;;;;;;;5006557;28;20034;-56
2021/06/16 14:14:54;;;;;;;0.60;0.60;;;;;;;;;;4975560;28;20058;-55
2021/06/16 14:17:29;;;;;;;1.20;0.65;;;;;;;;;;5007886;28;20048;-56
2021/06/16 14:20:01;;;;;;;0.50;0.50;;;;;;;;;;5006816;28;20069;-56
2021/06/16 14:22:30;;;;;;;1.63;0.50;;;;;;;;;;5018812;28;20056;-55
2021/06/16 14:25:01;;;;;;;0.50;0.50;;;;;;;;;;5011150;28;20034;-55
2021/06/16 14:27:29;;;;;;;2.42;0.70;;;;;;;;;;5009355;28;20057;-56
2021/06/16 14:30:08;;;;;;;0.90;0.40;;;;;;;;;;5010692;28;20070;-56
2021/06/16 14:32:40;;;;;;;1.65;0.88;;;;;;;;;;5008845;28;20525;-56
2021/06/16 14:35:11;;;;;;;0.70;0.50;;;;;;;;;;5010300;28;20050;-56
2021/06/16 14:37:45;;;;;;;1.13;0.50;;;;;;;;;;5008855;28;20095;-55
2021/06/16 14:40:19;;;;;;;0.85;0.68;;;;;;;;;;5007414;28;20109;-55
2021/06/16 14:42:53;;;;;;;0.50;0.50;;;;;;;;;;5015415;28;20042;-55
2021/06/16 14:45:28;;;;;;;1.95;0.50;;;;;;;;;;5005508;28;20049;-56
2021/06/16 14:47:59;;;;;;;0.50;0.50;;;;;;;;;;5025394;28;20482;-56
2021/06/16 14:50:32;;;;;;;0.50;0.50;;;;;;;;;;5009686;28;20482;-55
2021/06/16 14:53:04;;;;;;;0.50;0.50;;;;;;;;;;5006970;28;20030;-56
2021/06/16 14:55:36;;;;;;;1.85;0.50;;;;;;;;;;5009884;28;20041;-55
2021/06/16 14:58:06;;;;;;;0.90;0.60;;;;;;;;;;5011489;28;20041;-55
2021/06/16 15:00:34;;;;;;;0.50;0.50;;;;;;;;;;5008466;28;20099;-55
2021/06/16 15:03:01;;;;;;;0.55;0.55;;;;;;;;;;5010795;28;20057;-55
2021/06/16 15:05:30;;;;;;;0.50;0.50;;;;;;;;;;5007584;28;20077;-55
2021/06/16 15:08:02;;;;;;;1.60;0.70;;;;;;;;;;5025783;28;20038;-55
2021/06/16 15:10:36;;;;;;;2.45;0.60;;;;;;;;;;5010481;28;20044;-55
2021/06/16 15:13:13;;;;;;;3.60;1.25;;;;;;;;;;4973718;28;20129;-54
2021/06/16 15:15:45;;;;;;;0.65;0.60;;;;;;;;;;5009590;28;20080;-55
2021/06/16 15:18:20;;;;;;;1.08;0.50;;;;;;;;;;5006999;28;20123;-55
2021/06/16 15:20:52;;;;;;;1.77;0.70;;;;;;;;;;5004859;28;20044;-55
2021/06/16 15:23:20;;;;;;;1.48;0.60;;;;;;;;;;5009528;28;20367;-56